Time;durP1;ratioP1;P1;durP2;ratioP2;P2;SDS_P1;SDS_P2;PMS_P1;PMS_P2;Temp;Humidity;BMP_temperature;BMP_pressure;BME280_temperature;BME280_humidity;BME280_pressure;Samples;Min_cycle;Max_cycle;Signal;HPM_P1;HPM_P2
2021/12/01 00:02:05;;;;;;;1.10;1.00;;;6.60;99.90;;;;;;6253889;22;20264;-55
2021/12/01 00:04:31;;;;;;;1.10;1.10;;;6.40;99.90;;;;;;6253052;23;20429;-55
2021/12/01 00:06:56;;;;;;;1.00;0.90;;;6.30;99.90;;;;;;6253339;23;20190;-56
2021/12/01 00:09:22;;;;;;;0.80;0.80;;;6.30;99.90;;;;;;6253628;23;20188;-57
2021/12/01 00:11:47;;;;;;;1.20;1.10;;;6.40;99.90;;;;;;6253317;23;20642;-56
2021/12/01 00:14:13;;;;;;;1.33;1.23;;;6.20;99.90;;;;;;6253681;23;20150;-56
2021/12/01 00:16:39;;;;;;;1.17;1.07;;;6.20;99.90;;;;;;6242778;22;20186;-56
2021/12/01 00:19:04;;;;;;;1.00;1.00;;;6.30;99.90;;;;;;6252778;23;20152;-56
2021/12/01 00:21:30;;;;;;;1.13;1.03;;;6.10;99.90;;;;;;6253558;23;20646;-55
2021/12/01 00:23:56;;;;;;;1.23;1.13;;;6.10;99.90;;;;;;6253330;23;20181;-56
2021/12/01 00:26:21;;;;;;;0.83;0.83;;;6.10;99.90;;;;;;6252733;23;20172;-56
2021/12/01 00:28:47;;;;;;;1.10;0.90;;;6.10;99.90;;;;;;6253287;23;20144;-57
2021/12/01 00:31:13;;;;;;;0.90;0.80;;;6.30;99.90;;;;;;6253578;22;20199;-56
2021/12/01 00:33:41;;;;;;;1.20;1.10;;;6.10;99.90;;;;;;6252623;22;20858;-57
2021/12/01 00:36:08;;;;;;;1.10;1.00;;;6.00;99.90;;;;;;6253129;22;20152;-57
2021/12/01 00:38:35;;;;;;;1.15;1.05;;;6.10;99.90;;;;;;6252582;22;20160;-58
2021/12/01 00:41:04;;;;;;;0.77;0.77;;;6.10;99.90;;;;;;6252713;22;20194;-56
2021/12/01 00:43:30;;;;;;;1.33;0.80;;;6.20;99.90;;;;;;6253396;22;20170;-56
2021/12/01 00:45:57;;;;;;;6.10;1.00;;;6.00;99.90;;;;;;6253212;22;20178;-57
2021/12/01 00:48:24;;;;;;;1.20;1.10;;;5.50;99.90;;;;;;6252728;22;20389;-56
2021/12/01 00:50:51;;;;;;;0.77;0.75;;;6.30;99.90;;;;;;6243204;22;20180;-57
2021/12/01 00:53:17;;;;;;;0.82;0.82;;;6.10;99.90;;;;;;6253256;22;20596;-56
2021/12/01 00:55:43;;;;;;;0.80;0.75;;;6.40;99.90;;;;;;6252702;23;20163;-56
2021/12/01 00:58:12;;;;;;;0.80;0.70;;;5.60;99.90;;;;;;6252057;22;20147;-57
2021/12/01 01:00:39;;;;;;;0.70;0.70;;;6.10;99.90;;;;;;6252486;22;20167;-56
2021/12/01 01:03:05;;;;;;;0.80;0.77;;;6.30;99.90;;;;;;6253596;22;20480;-57
2021/12/01 01:05:31;;;;;;;1.70;0.87;;;6.40;99.90;;;;;;6242374;23;20156;-56
2021/12/01 01:07:56;;;;;;;0.70;0.70;;;6.40;99.90;;;;;;6252608;22;20178;-55
2021/12/01 01:18:24;;;;;;;0.95;0.85;;;6.20;99.90;;;;;;6252588;23;20143;-56
2021/12/01 01:20:49;;;;;;;1.00;0.90;;;6.00;99.90;;;;;;6252491;22;20172;-56
2021/12/01 01:23:15;;;;;;;1.40;1.30;;;6.00;99.90;;;;;;6243066;23;20162;-56
2021/12/01 01:25:41;;;;;;;1.13;1.00;;;6.10;99.90;;;;;;6252577;22;20171;-56
2021/12/01 01:28:07;;;;;;;1.10;1.00;;;5.90;99.90;;;;;;6252359;23;20403;-57
2021/12/01 01:30:33;;;;;;;1.20;1.10;;;6.20;99.90;;;;;;6242543;22;20390;-57
2021/12/01 01:32:59;;;;;;;1.00;0.90;;;6.30;99.90;;;;;;6252626;23;20379;-57
2021/12/01 01:35:25;;;;;;;1.40;1.30;;;6.20;99.90;;;;;;6242308;22;20159;-57
2021/12/01 01:37:51;;;;;;;1.23;1.07;;;6.30;99.90;;;;;;6251546;22;20555;-56
2021/12/01 01:40:18;;;;;;;1.17;1.07;;;6.30;99.90;;;;;;6241451;22;20405;-56
2021/12/01 01:42:43;;;;;;;1.08;0.98;;;6.20;99.90;;;;;;6242197;22;20433;-55
2021/12/01 01:45:10;;;;;;;1.40;1.30;;;6.10;99.90;;;;;;6240506;23;20508;-55
2021/12/01 01:47:36;;;;;;;1.00;0.90;;;6.30;99.90;;;;;;6251693;22;20180;-56
2021/12/01 01:50:26;;;;;;;1.35;1.25;;;6.00;99.90;;;;;;6249826;22;20593;-56
2021/12/01 01:52:52;;;;;;;1.98;1.25;;;6.40;99.90;;;;;;6253021;22;20132;-55
2021/12/01 01:55:18;;;;;;;2.60;1.20;;;6.40;99.90;;;;;;6251961;23;20478;-56
2021/12/01 01:57:44;;;;;;;3.40;1.63;;;5.70;99.90;;;;;;6251793;23;20215;-56
2021/12/01 02:00:10;;;;;;;2.10;1.30;;;6.30;99.90;;;;;;6251993;22;20552;-57
2021/12/01 02:02:36;;;;;;;2.42;1.75;;;6.50;99.90;;;;;;6251976;22;20149;-58
2021/12/01 02:05:02;;;;;;;1.40;1.30;;;6.20;99.90;;;;;;6252351;23;20181;-58
2021/12/01 02:07:29;;;;;;;1.30;1.20;;;6.40;99.90;;;;;;6252341;22;20186;-57
2021/12/01 02:09:55;;;;;;;1.58;1.48;;;6.00;99.90;;;;;;6241724;22;20156;-57
2021/12/01 02:12:20;;;;;;;1.77;1.27;;;6.20;99.90;;;;;;6252074;22;20587;-57
2021/12/01 02:14:46;;;;;;;1.37;1.27;;;6.40;99.90;;;;;;6252291;23;20164;-56
2021/12/01 02:17:12;;;;;;;2.15;1.13;;;6.50;99.90;;;;;;6242046;22;20228;-57
2021/12/01 02:19:38;;;;;;;1.20;1.17;;;6.50;99.90;;;;;;6251158;23;20158;-57
2021/12/01 02:22:04;;;;;;;1.30;1.20;;;6.60;99.90;;;;;;6251556;22;20180;-56
2021/12/01 02:24:30;;;;;;;1.40;1.07;;;6.60;99.90;;;;;;6251509;23;20239;-56
2021/12/01 02:26:56;;;;;;;1.03;0.97;;;6.50;99.90;;;;;;6241364;22;20181;-56
2021/12/01 02:29:26;;;;;;;1.30;1.20;;;6.80;99.90;;;;;;6252697;22;20152;-56
2021/12/01 02:31:53;;;;;;;1.30;1.20;;;6.50;99.90;;;;;;6252596;23;20177;-56
2021/12/01 02:34:22;;;;;;;2.80;1.10;;;6.60;99.90;;;;;;6252343;22;20153;-56
2021/12/01 02:36:51;;;;;;;2.03;1.20;;;6.70;99.90;;;;;;6241432;22;20168;-56
2021/12/01 02:39:18;;;;;;;1.35;1.20;;;6.50;99.90;;;;;;6251090;22;20550;-56
2021/12/01 02:41:46;;;;;;;1.40;1.30;;;6.60;99.90;;;;;;6240046;23;20237;-57
2021/12/01 02:44:12;;;;;;;1.25;1.15;;;6.80;99.90;;;;;;6240733;23;20836;-57
2021/12/01 02:46:38;;;;;;;1.25;1.00;;;6.60;99.90;;;;;;6240087;23;20183;-56
2021/12/01 02:49:05;;;;;;;1.05;0.95;;;6.70;99.90;;;;;;6241770;22;20157;-57
2021/12/01 02:51:32;;;;;;;1.65;1.00;;;6.70;99.90;;;;;;6252159;22;20173;-57
2021/12/01 02:53:59;;;;;;;0.98;0.90;;;6.80;99.90;;;;;;6240729;23;20364;-56
2021/12/01 02:56:26;;;;;;;2.10;1.17;;;6.60;99.90;;;;;;6252181;23;20160;-56
2021/12/01 02:58:52;;;;;;;1.05;0.90;;;6.90;99.90;;;;;;6253403;22;20164;-55
2021/12/01 03:01:22;;;;;;;1.20;1.10;;;6.80;99.90;;;;;;6253603;22;20172;-57
2021/12/01 03:03:49;;;;;;;0.90;0.80;;;6.80;99.90;;;;;;6253350;22;20492;-55
2021/12/01 03:06:17;;;;;;;2.45;1.70;;;6.70;99.90;;;;;;6253695;22;20231;-56
2021/12/01 03:08:45;;;;;;;0.90;0.90;;;6.80;99.90;;;;;;6243458;22;20167;-56
2021/12/01 03:11:12;;;;;;;1.20;1.10;;;6.80;99.90;;;;;;6243315;22;20175;-57
2021/12/01 03:13:39;;;;;;;0.93;0.90;;;6.60;99.90;;;;;;6254678;22;20171;-56
2021/12/01 03:16:05;;;;;;;1.10;1.00;;;6.90;99.90;;;;;;6253796;22;20180;-56
2021/12/01 03:18:31;;;;;;;1.10;1.00;;;6.90;99.90;;;;;;6252915;22;20588;-57
2021/12/01 03:20:57;;;;;;;1.10;0.90;;;6.70;99.90;;;;;;6253026;22;20203;-56
2021/12/01 03:23:24;;;;;;;1.70;1.35;;;7.00;99.90;;;;;;6252909;23;20382;-56
2021/12/01 03:25:51;;;;;;;1.25;1.00;;;6.90;99.90;;;;;;6242467;22;20176;-57
2021/12/01 03:28:18;;;;;;;1.52;1.00;;;7.00;99.90;;;;;;6253656;22;20152;-56
2021/12/01 03:30:44;;;;;;;1.60;0.95;;;7.00;99.90;;;;;;6243512;22;20515;-56
2021/12/01 03:33:13;;;;;;;1.10;1.00;;;7.20;99.90;;;;;;6243260;22;20149;-57
2021/12/01 03:35:42;;;;;;;1.20;1.10;;;6.80;99.90;;;;;;6253931;22;20156;-56
2021/12/01 03:38:08;;;;;;;1.17;1.10;;;7.30;99.90;;;;;;6253463;22;20160;-57
2021/12/01 03:40:34;;;;;;;1.30;1.20;;;7.00;99.90;;;;;;6242916;23;20176;-57
2021/12/01 03:43:00;;;;;;;1.37;1.03;;;6.60;99.90;;;;;;6253586;22;20408;-57
2021/12/01 03:45:25;;;;;;;1.10;1.00;;;6.80;99.90;;;;;;6243055;22;20399;-57
2021/12/01 03:47:51;;;;;;;1.23;1.10;;;6.80;99.90;;;;;;6241274;23;20222;-56
2021/12/01 03:50:18;;;;;;;1.20;0.90;;;6.40;99.90;;;;;;6243400;22;20187;-56
2021/12/01 03:52:43;;;;;;;1.15;0.93;;;6.90;99.90;;;;;;6253832;22;20357;-57
2021/12/01 03:55:09;;;;;;;2.73;1.10;;;6.90;99.90;;;;;;6253484;23;20148;-56
2021/12/01 03:57:36;;;;;;;1.55;1.15;;;7.00;99.90;;;;;;6253127;22;20156;-56
2021/12/01 04:00:07;;;;;;;1.60;1.00;;;7.10;99.90;;;;;;6253747;22;20627;-57
2021/12/01 04:02:32;;;;;;;1.20;1.10;;;6.80;99.90;;;;;;6242784;22;20168;-56
2021/12/01 04:04:58;;;;;;;1.73;1.40;;;6.90;99.90;;;;;;6253692;23;20225;-56
2021/12/01 04:07:24;;;;;;;1.30;1.20;;;7.00;99.90;;;;;;6253165;23;20173;-56
2021/12/01 04:09:51;;;;;;;1.50;1.20;;;7.00;99.90;;;;;;6253076;23;20171;-56
2021/12/01 04:12:17;;;;;;;3.10;1.42;;;7.30;99.90;;;;;;6253062;23;20172;-57
2021/12/01 04:14:43;;;;;;;3.75;2.65;;;6.70;99.90;;;;;;6253680;22;20624;-56
2021/12/01 04:17:09;;;;;;;1.17;1.02;;;7.20;99.90;;;;;;6252777;22;20173;-56
2021/12/01 04:19:34;;;;;;;1.73;1.20;;;7.10;99.90;;;;;;6252475;23;20154;-57
2021/12/01 04:22:00;;;;;;;1.43;1.20;;;7.10;99.90;;;;;;6253010;22;20252;-57
2021/12/01 04:24:26;;;;;;;1.20;1.10;;;7.10;99.90;;;;;;6252768;22;20149;-57
2021/12/01 04:26:52;;;;;;;2.17;1.40;;;7.30;99.90;;;;;;6252850;22;20418;-57
2021/12/01 04:29:18;;;;;;;1.10;1.00;;;7.20;99.90;;;;;;6253563;22;20855;-57
2021/12/01 04:31:44;;;;;;;1.77;1.00;;;7.30;99.90;;;;;;6253243;22;20165;-57
2021/12/01 04:34:10;;;;;;;1.27;1.10;;;6.60;99.90;;;;;;6253072;23;20156;-58
2021/12/01 04:36:40;;;;;;;1.40;1.30;;;7.00;99.90;;;;;;6252486;22;20407;-57
2021/12/01 04:39:09;;;;;;;1.60;1.33;;;7.30;99.90;;;;;;6253443;22;20445;-57
2021/12/01 04:41:40;;;;;;;2.40;1.50;;;7.20;99.90;;;;;;6253245;22;20207;-57
2021/12/01 04:44:10;;;;;;;5.78;1.20;;;7.20;99.90;;;;;;6253260;23;20133;-56
2021/12/01 04:46:43;;;;;;;1.50;1.25;;;7.10;99.90;;;;;;6252091;22;20188;-58
2021/12/01 04:49:11;;;;;;;1.05;0.95;;;7.30;99.90;;;;;;6252842;22;20135;-58
2021/12/01 04:51:38;;;;;;;1.23;1.10;;;7.20;99.90;;;;;;6253601;22;20171;-56
2021/12/01 04:54:04;;;;;;;1.63;1.30;;;7.20;99.90;;;;;;6253010;22;20141;-56
2021/12/01 04:56:30;;;;;;;1.17;1.08;;;6.80;99.90;;;;;;6252307;22;20165;-56
2021/12/01 04:58:56;;;;;;;1.33;1.23;;;7.20;99.90;;;;;;6252517;23;20489;-57
2021/12/01 05:01:22;;;;;;;1.60;1.50;;;7.60;99.90;;;;;;6253034;22;20453;-56
2021/12/01 05:03:47;;;;;;;1.20;1.10;;;7.40;99.90;;;;;;6251583;23;20390;-56
2021/12/01 05:06:15;;;;;;;1.17;1.07;;;7.30;99.90;;;;;;6253213;23;20180;-55
2021/12/01 05:08:41;;;;;;;1.52;1.30;;;7.40;99.90;;;;;;6252463;23;20155;-56
2021/12/01 05:11:07;;;;;;;1.30;1.20;;;7.60;99.90;;;;;;6252777;22;20631;-56
2021/12/01 05:13:33;;;;;;;1.00;0.90;;;7.40;99.90;;;;;;6252281;23;20236;-56
2021/12/01 05:15:59;;;;;;;2.47;1.50;;;7.40;99.90;;;;;;6252993;22;20179;-57
2021/12/01 05:18:24;;;;;;;1.63;1.10;;;7.30;99.90;;;;;;6252130;22;20588;-55
2021/12/01 05:20:50;;;;;;;1.10;0.93;;;7.40;99.90;;;;;;6252829;23;20176;-57
2021/12/01 05:23:16;;;;;;;1.67;0.70;;;7.60;99.90;;;;;;6252908;22;20156;-57
2021/12/01 05:25:43;;;;;;;1.20;1.10;;;7.40;99.90;;;;;;6252191;23;20149;-56
2021/12/01 05:28:08;;;;;;;1.50;1.20;;;7.40;99.90;;;;;;6252307;22;20145;-57
2021/12/01 05:30:34;;;;;;;1.20;1.10;;;7.40;99.90;;;;;;6242120;22;20647;-57
2021/12/01 05:33:05;;;;;;;1.00;0.97;;;7.50;99.90;;;;;;6251647;23;20398;-57
2021/12/01 05:35:31;;;;;;;1.52;0.95;;;7.30;99.90;;;;;;6240738;23;20184;-56
2021/12/01 05:37:57;;;;;;;1.00;0.70;;;7.40;99.90;;;;;;6252222;23;20156;-57
2021/12/01 05:40:23;;;;;;;0.80;0.70;;;7.40;99.90;;;;;;6252410;22;20804;-57
2021/12/01 05:42:49;;;;;;;0.73;0.70;;;7.50;99.90;;;;;;6251710;23;20359;-57
2021/12/01 05:45:15;;;;;;;0.90;0.70;;;7.80;99.90;;;;;;6252946;23;20598;-55
2021/12/01 05:47:41;;;;;;;0.88;0.82;;;7.50;99.90;;;;;;6252274;22;20173;-56
2021/12/01 05:50:07;;;;;;;0.70;0.60;;;7.80;99.90;;;;;;6252966;23;20152;-56
2021/12/01 05:52:33;;;;;;;0.80;0.77;;;7.40;99.90;;;;;;6251891;22;20149;-55
2021/12/01 05:54:58;;;;;;;0.80;0.80;;;7.90;99.90;;;;;;6252112;23;20207;-56
2021/12/01 05:57:24;;;;;;;0.70;0.70;;;7.80;99.90;;;;;;6241141;23;20184;-56
2021/12/01 05:59:50;;;;;;;0.70;0.60;;;7.90;99.90;;;;;;6252347;22;20148;-55
2021/12/01 06:02:15;;;;;;;0.97;0.63;;;7.90;99.90;;;;;;6252068;23;20226;-56
2021/12/01 06:04:41;;;;;;;1.13;0.70;;;7.80;99.90;;;;;;6251856;23;20149;-57
2021/12/01 06:07:07;;;;;;;0.80;0.80;;;7.70;99.90;;;;;;6251710;22;20542;-58
2021/12/01 06:09:33;;;;;;;1.00;0.90;;;8.00;99.90;;;;;;6252517;23;20226;-57
2021/12/01 06:11:59;;;;;;;0.70;0.70;;;8.00;99.90;;;;;;6250768;22;20173;-53
2021/12/01 06:14:25;;;;;;;1.00;0.70;;;7.80;99.90;;;;;;6252232;22;20573;-54
2021/12/01 06:16:51;;;;;;;0.80;0.80;;;8.20;99.90;;;;;;6251468;22;20370;-54
2021/12/01 06:19:17;;;;;;;1.05;0.80;;;8.20;99.90;;;;;;6252014;22;20160;-54
2021/12/01 06:21:43;;;;;;;1.07;0.80;;;8.40;99.90;;;;;;6252539;23;20176;-54
2021/12/01 06:24:08;;;;;;;1.20;0.90;;;8.20;99.90;;;;;;6252026;23;20581;-53
2021/12/01 06:26:34;;;;;;;0.87;0.70;;;8.30;99.90;;;;;;6252183;23;20209;-54
2021/12/01 06:29:00;;;;;;;1.00;0.90;;;8.10;99.90;;;;;;6251333;22;20156;-54
2021/12/01 06:31:26;;;;;;;1.37;0.73;;;8.30;99.90;;;;;;6251762;23;20402;-54
2021/12/01 06:33:51;;;;;;;1.10;0.80;;;8.10;99.90;;;;;;6253464;23;20146;-54
2021/12/01 06:36:17;;;;;;;1.00;0.90;;;8.20;99.90;;;;;;6240191;23;20156;-55
2021/12/01 06:38:43;;;;;;;0.80;0.70;;;8.10;99.90;;;;;;6253964;23;20561;-55
2021/12/01 06:41:10;;;;;;;3.93;0.80;;;8.30;99.90;;;;;;6253480;23;20184;-56
2021/12/01 06:43:35;;;;;;;0.85;0.70;;;8.00;99.90;;;;;;6253628;22;20145;-55
2021/12/01 06:46:01;;;;;;;1.13;1.03;;;8.30;99.90;;;;;;6242425;22;20231;-54
2021/12/01 06:48:27;;;;;;;1.10;0.90;;;8.20;99.90;;;;;;6253152;23;20619;-54
2021/12/01 06:50:53;;;;;;;0.80;0.80;;;8.40;99.90;;;;;;6242401;23;20177;-54
2021/12/01 06:53:19;;;;;;;0.85;0.80;;;8.30;99.90;;;;;;6243173;23;20540;-54
2021/12/01 06:55:44;;;;;;;0.93;0.83;;;8.20;99.90;;;;;;6253249;23;20168;-55
2021/12/01 06:58:11;;;;;;;2.45;0.73;;;8.50;99.90;;;;;;6252914;22;20153;-53
2021/12/01 07:00:37;;;;;;;1.00;0.90;;;8.60;99.90;;;;;;6253151;22;20173;-55
2021/12/01 07:03:03;;;;;;;2.63;0.80;;;8.20;99.90;;;;;;6253626;22;20179;-54
2021/12/01 07:05:29;;;;;;;1.07;0.77;;;8.00;99.90;;;;;;6253648;23;20228;-53
2021/12/01 07:07:56;;;;;;;1.30;0.90;;;8.50;99.90;;;;;;6253615;23;20215;-54
2021/12/01 07:10:21;;;;;;;1.30;1.10;;;7.70;99.90;;;;;;6252645;22;20554;-53
2021/12/01 07:12:47;;;;;;;1.00;0.90;;;8.40;99.90;;;;;;6253894;23;20157;-54
2021/12/01 07:15:13;;;;;;;1.13;0.60;;;8.40;99.90;;;;;;6252815;23;20224;-54
2021/12/01 07:17:41;;;;;;;0.70;0.70;;;8.40;99.90;;;;;;6253037;22;20652;-54
2021/12/01 07:20:08;;;;;;;0.70;0.65;;;8.10;99.90;;;;;;6242504;22;20160;-54
2021/12/01 07:22:34;;;;;;;1.50;0.95;;;8.50;99.90;;;;;;6253836;22;20176;-54
2021/12/01 07:25:00;;;;;;;1.00;0.80;;;8.60;99.90;;;;;;6252849;23;20150;-54
2021/12/01 07:27:25;;;;;;;1.10;0.80;;;8.80;99.90;;;;;;6243021;22;20191;-54
2021/12/01 07:29:51;;;;;;;1.37;0.70;;;8.80;99.90;;;;;;6242844;23;20378;-52
2021/12/01 07:32:17;;;;;;;1.00;0.80;;;8.60;99.90;;;;;;6242969;23;20173;-56
2021/12/01 07:34:43;;;;;;;0.77;0.70;;;8.80;99.90;;;;;;6252509;23;20615;-54
2021/12/01 07:37:13;;;;;;;1.00;0.60;;;8.70;99.90;;;;;;6253292;22;20635;-56
2021/12/01 07:39:39;;;;;;;0.70;0.50;;;8.50;99.90;;;;;;6240917;23;20161;-54
2021/12/01 07:42:07;;;;;;;1.02;0.77;;;8.70;99.90;;;;;;6253328;23;20180;-51
2021/12/01 07:44:33;;;;;;;0.70;0.63;;;8.50;99.90;;;;;;6253278;22;20157;-53
2021/12/01 07:46:59;;;;;;;0.75;0.70;;;9.00;99.90;;;;;;6241499;22;20192;-53
2021/12/01 07:49:25;;;;;;;0.80;0.70;;;8.80;99.90;;;;;;6241610;23;20605;-55
2021/12/01 07:51:51;;;;;;;0.60;0.50;;;8.70;99.90;;;;;;6252858;22;20160;-55
2021/12/01 07:54:17;;;;;;;0.90;0.60;;;8.80;99.90;;;;;;6252558;22;20458;-54
2021/12/01 07:56:43;;;;;;;0.50;0.50;;;8.90;99.90;;;;;;6252858;22;20414;-54
2021/12/01 07:59:11;;;;;;;0.60;0.50;;;8.90;99.90;;;;;;6242239;22;20698;-54
2021/12/01 08:01:36;;;;;;;1.00;0.77;;;8.70;99.90;;;;;;6241315;23;20181;-53
2021/12/01 08:04:03;;;;;;;2.20;0.90;;;9.00;99.90;;;;;;6252798;22;20161;-53
2021/12/01 08:06:32;;;;;;;0.90;0.70;;;9.10;99.90;;;;;;6253283;22;20452;-54
2021/12/01 08:09:00;;;;;;;2.45;0.70;;;9.10;99.90;;;;;;6242629;22;20162;-54
2021/12/01 08:11:27;;;;;;;0.60;0.60;;;9.20;99.90;;;;;;6252557;22;20164;-55
2021/12/01 08:13:52;;;;;;;1.58;0.57;;;9.20;99.90;;;;;;6241201;23;20184;-54
2021/12/01 08:16:18;;;;;;;1.17;0.60;;;9.00;99.90;;;;;;6252894;23;20672;-54
2021/12/01 08:18:43;;;;;;;0.70;0.60;;;9.00;99.90;;;;;;6240666;23;20240;-54
2021/12/01 08:21:09;;;;;;;0.70;0.50;;;9.10;99.90;;;;;;6252933;23;20176;-54
2021/12/01 08:23:35;;;;;;;0.60;0.50;;;9.10;99.90;;;;;;6241088;23;20168;-54
2021/12/01 08:26:00;;;;;;;0.60;0.60;;;9.40;99.90;;;;;;6242290;22;20256;-54
2021/12/01 08:28:26;;;;;;;1.07;0.97;;;8.80;99.90;;;;;;6242280;23;20443;-55
2021/12/01 08:30:52;;;;;;;0.60;0.57;;;9.60;99.90;;;;;;6252192;23;20169;-55
2021/12/01 08:33:17;;;;;;;0.70;0.60;;;9.40;99.90;;;;;;6253342;23;20521;-55
2021/12/01 08:35:43;;;;;;;1.47;0.90;;;9.50;99.90;;;;;;6252500;23;20156;-55
2021/12/01 08:38:09;;;;;;;0.90;0.70;;;9.60;99.90;;;;;;6253580;23;20172;-55
2021/12/01 08:40:35;;;;;;;1.17;0.70;;;9.60;99.90;;;;;;6252984;22;20165;-56
2021/12/01 08:43:00;;;;;;;2.10;0.70;;;9.80;99.90;;;;;;6241818;22;20264;-53
2021/12/01 08:45:26;;;;;;;0.80;0.70;;;9.60;99.90;;;;;;6253078;23;20154;-54
2021/12/01 08:47:52;;;;;;;0.83;0.83;;;9.50;99.90;;;;;;6252146;23;20168;-53
2021/12/01 08:50:18;;;;;;;0.60;0.53;;;9.70;99.90;;;;;;6253154;22;20180;-53
2021/12/01 08:52:45;;;;;;;0.65;0.65;;;9.50;99.90;;;;;;6252345;22;20156;-54
2021/12/01 08:55:11;;;;;;;0.70;0.50;;;9.50;99.90;;;;;;6241690;22;20248;-54
2021/12/01 08:57:37;;;;;;;0.90;0.65;;;9.70;99.90;;;;;;6241902;22;20503;-53
2021/12/01 09:00:05;;;;;;;0.93;0.60;;;9.90;99.90;;;;;;6252538;23;20172;-53
2021/12/01 09:02:30;;;;;;;0.70;0.50;;;9.80;99.90;;;;;;6253096;22;20153;-54
2021/12/01 09:04:56;;;;;;;0.60;0.50;;;9.70;99.90;;;;;;6240828;23;20589;-54
2021/12/01 09:07:22;;;;;;;0.60;0.50;;;10.20;99.90;;;;;;6252711;23;20220;-55
2021/12/01 09:09:48;;;;;;;1.10;0.50;;;10.50;99.90;;;;;;6252514;22;20524;-53
2021/12/01 09:12:14;;;;;;;1.00;0.90;;;10.80;99.90;;;;;;6251738;22;20657;-53
2021/12/01 09:14:42;;;;;;;2.65;1.85;;;11.60;99.90;;;;;;6251969;22;20148;-54
2021/12/01 09:17:10;;;;;;;0.70;0.60;;;12.00;98.80;;;;;;6251959;22;20169;-55
2021/12/01 09:19:36;;;;;;;0.95;0.60;;;12.80;97.30;;;;;;6252316;22;20623;-55
2021/12/01 09:22:01;;;;;;;1.05;0.55;;;13.60;96.40;;;;;;6241430;22;20184;-53
2021/12/01 09:24:27;;;;;;;0.70;0.50;;;14.00;94.10;;;;;;6241790;22;20161;-55
2021/12/01 09:26:53;;;;;;;0.70;0.57;;;14.10;93.60;;;;;;6251576;23;20411;-54
2021/12/01 09:29:18;;;;;;;0.60;0.50;;;14.70;92.50;;;;;;6252658;22;20195;-55
2021/12/01 09:31:44;;;;;;;1.00;0.70;;;14.30;92.80;;;;;;6252387;23;20223;-54
2021/12/01 09:34:10;;;;;;;0.80;0.57;;;14.10;93.00;;;;;;6252122;22;20145;-57
2021/12/01 09:36:36;;;;;;;0.87;0.60;;;13.30;93.40;;;;;;6251794;23;20153;-55
2021/12/01 09:39:03;;;;;;;1.20;1.10;;;13.00;94.40;;;;;;6252186;23;20390;-55
2021/12/01 09:41:29;;;;;;;0.70;0.50;;;12.80;95.40;;;;;;6251672;22;20247;-54
2021/12/01 09:43:55;;;;;;;0.70;0.70;;;12.00;95.70;;;;;;6251964;22;20237;-56
2021/12/01 09:46:22;;;;;;;0.70;0.50;;;12.20;96.70;;;;;;6251924;22;20182;-54
2021/12/01 09:48:48;;;;;;;0.70;0.60;;;11.50;96.90;;;;;;6251709;22;20154;-55
2021/12/01 09:51:16;;;;;;;0.70;0.60;;;11.30;97.60;;;;;;6252072;22;20519;-55
2021/12/01 09:53:42;;;;;;;0.85;0.60;;;11.30;98.20;;;;;;6252339;22;20773;-55
2021/12/01 09:56:08;;;;;;;0.70;0.60;;;11.30;98.60;;;;;;6241378;22;20157;-54
2021/12/01 09:58:35;;;;;;;3.50;0.70;;;11.10;98.60;;;;;;6251591;23;20659;-55
2021/12/01 10:01:07;;;;;;;0.60;0.50;;;11.10;99.00;;;;;;6251811;22;20174;-56
2021/12/01 10:03:33;;;;;;;0.90;0.60;;;11.10;98.80;;;;;;6252412;22;20537;-56
2021/12/01 10:06:10;;;;;;;2.55;0.90;;;11.00;99.10;;;;;;6251324;22;20185;-56
2021/12/01 10:08:38;;;;;;;0.70;0.52;;;11.10;99.30;;;;;;6254042;22;20491;-57
2021/12/01 10:11:08;;;;;;;0.70;0.70;;;11.20;99.30;;;;;;6253251;22;20174;-56
2021/12/01 10:13:37;;;;;;;1.02;0.65;;;10.80;99.10;;;;;;6252359;22;20540;-56
2021/12/01 10:16:05;;;;;;;0.70;0.52;;;11.20;99.30;;;;;;6252670;22;20204;-54
2021/12/01 10:18:41;;;;;;;1.02;0.60;;;11.30;99.30;;;;;;6253395;22;20147;-55
2021/12/01 10:21:11;;;;;;;0.70;0.55;;;11.40;99.40;;;;;;6244339;22;20175;-55
2021/12/01 10:23:40;;;;;;;0.70;0.60;;;11.10;98.90;;;;;;6253552;22;20153;-53
2021/12/01 10:26:13;;;;;;;0.60;0.40;;;11.20;99.20;;;;;;6253221;22;20259;-54
2021/12/01 10:28:42;;;;;;;1.80;0.50;;;11.30;99.30;;;;;;6241471;23;20158;-57
2021/12/01 10:31:08;;;;;;;0.60;0.50;;;11.20;99.20;;;;;;6253337;22;20495;-56
2021/12/01 10:33:34;;;;;;;0.60;0.45;;;11.40;99.50;;;;;;6253585;22;20151;-53
2021/12/01 10:36:02;;;;;;;0.60;0.50;;;11.60;98.90;;;;;;6241492;23;20162;-55
2021/12/01 10:38:32;;;;;;;1.23;0.70;;;11.40;98.50;;;;;;6253777;22;20447;-56
2021/12/01 10:41:16;;;;;;;0.73;0.60;;;11.50;98.80;;;;;;6241894;23;20188;-56
2021/12/01 10:43:46;;;;;;;1.30;0.80;;;11.80;98.80;;;;;;6254261;22;20538;-54
2021/12/01 10:46:16;;;;;;;0.70;0.52;;;11.70;98.60;;;;;;6253893;22;20178;-54
2021/12/01 10:48:45;;;;;;;0.70;0.50;;;11.80;98.80;;;;;;6253469;22;20150;-54
2021/12/01 10:51:13;;;;;;;0.90;0.50;;;11.90;98.60;;;;;;6253113;22;20170;-55
2021/12/01 10:53:40;;;;;;;0.90;0.50;;;11.60;98.50;;;;;;6241289;23;20160;-55
2021/12/01 10:56:07;;;;;;;0.60;0.50;;;11.90;98.90;;;;;;6253473;22;20154;-55
2021/12/01 10:58:37;;;;;;;0.70;0.50;;;11.70;98.60;;;;;;6253199;22;20206;-54
2021/12/01 11:01:06;;;;;;;1.38;1.17;;;11.60;98.80;;;;;;6253434;22;20199;-54
2021/12/01 11:03:34;;;;;;;1.10;0.80;;;11.60;99.00;;;;;;6242760;22;20231;-55
2021/12/01 11:06:12;;;;;;;1.38;0.70;;;11.60;99.30;;;;;;6253368;22;20496;-54
2021/12/01 11:08:41;;;;;;;1.77;0.70;;;11.80;99.30;;;;;;6252514;22;20178;-55
2021/12/01 11:11:12;;;;;;;0.80;0.50;;;11.90;98.90;;;;;;6241074;23;20175;-54
2021/12/01 11:13:43;;;;;;;0.80;0.70;;;11.90;99.00;;;;;;6242203;22;20147;-53
2021/12/01 11:16:12;;;;;;;0.80;0.77;;;11.70;99.00;;;;;;6251413;22;20481;-53
2021/12/01 11:18:41;;;;;;;0.65;0.50;;;11.80;99.30;;;;;;6251685;22;20234;-55
2021/12/01 11:21:08;;;;;;;0.63;0.50;;;12.10;99.50;;;;;;6253049;22;20176;-55
2021/12/01 11:23:40;;;;;;;0.60;0.40;;;11.90;99.90;;;;;;6253287;22;20234;-54
2021/12/01 11:26:08;;;;;;;1.25;1.00;;;12.20;99.80;;;;;;6252619;22;20131;-54
2021/12/01 11:28:40;;;;;;;0.60;0.50;;;12.10;99.90;;;;;;6252571;22;20672;-53
2021/12/01 11:31:10;;;;;;;0.70;0.60;;;12.00;99.90;;;;;;6252836;22;20195;-56
2021/12/01 11:33:37;;;;;;;3.05;2.42;;;11.40;99.90;;;;;;6253313;22;20143;-54
2021/12/01 11:36:08;;;;;;;3.88;2.22;;;11.80;99.90;;;;;;6240324;23;20521;-54
2021/12/01 11:38:36;;;;;;;0.80;0.50;;;11.70;99.90;;;;;;6251896;22;20145;-55
2021/12/01 11:41:04;;;;;;;1.90;0.80;;;11.70;99.90;;;;;;6251935;22;20233;-54
2021/12/01 11:43:32;;;;;;;0.63;0.52;;;12.00;99.90;;;;;;6240947;22;20238;-85
2021/12/01 11:45:58;;;;;;;0.70;0.60;;;12.60;99.90;;;;;;6233708;23;20226;-86
2021/12/01 11:48:38;;;;;;;0.60;0.40;;;12.20;99.90;;;;;;6212042;23;20169;-86
2021/12/01 11:51:22;;;;;;;2.17;0.63;;;12.80;99.90;;;;;;6213248;23;20145;-86
2021/12/01 11:54:16;;;;;;;1.40;0.85;;;12.70;99.90;;;;;;6212267;23;20481;-86
2021/12/01 11:57:00;;;;;;;1.05;0.60;;;12.40;99.90;;;;;;6205046;23;20177;-86
2021/12/01 11:59:31;;;;;;;1.90;1.42;;;12.70;99.90;;;;;;6214126;23;20239;-86
2021/12/01 12:02:02;;;;;;;1.30;0.80;;;12.60;99.90;;;;;;6214371;23;20172;-85
2021/12/01 12:04:31;;;;;;;0.70;0.70;;;12.80;99.90;;;;;;6210565;23;20560;-85
2021/12/01 12:07:03;;;;;;;1.13;1.02;;;12.40;99.80;;;;;;6223386;23;20256;-86
2021/12/01 12:09:29;;;;;;;4.15;3.35;;;12.10;99.90;;;;;;6213248;23;20156;-86
2021/12/01 12:12:05;;;;;;;1.13;1.02;;;12.80;99.90;;;;;;6212726;23;20161;-85
2021/12/01 12:14:35;;;;;;;0.80;0.80;;;12.40;99.90;;;;;;6212542;23;20157;-86
2021/12/01 12:17:08;;;;;;;0.80;0.75;;;12.50;99.90;;;;;;6214139;23;20178;-86
2021/12/01 12:20:11;;;;;;;0.70;0.60;;;12.00;99.90;;;;;;6211379;23;20166;-88
2021/12/01 12:22:39;;;;;;;1.65;0.90;;;12.50;99.90;;;;;;6214281;23;20157;-83
2021/12/01 12:25:08;;;;;;;1.10;1.00;;;12.80;99.90;;;;;;6214043;23;20160;-85
2021/12/01 12:27:47;;;;;;;0.80;0.75;;;12.70;99.90;;;;;;6214340;23;20242;-92
2021/12/01 12:30:29;;;;;;;1.23;0.60;;;12.80;99.90;;;;;;6216191;23;20557;-91
2021/12/01 12:33:26;;;;;;;1.00;0.85;;;12.20;99.90;;;;;;6213739;23;20157;-90
2021/12/01 12:35:58;;;;;;;2.38;1.15;;;12.50;99.90;;;;;;6219708;22;20240;-55
2021/12/01 12:38:24;;;;;;;1.55;1.08;;;12.40;99.90;;;;;;6251958;22;20232;-55
2021/12/01 12:41:01;;;;;;;1.05;0.80;;;12.30;99.90;;;;;;6251373;22;20148;-55
2021/12/01 12:43:29;;;;;;;0.90;0.70;;;12.30;99.90;;;;;;6250308;22;20641;-54
2021/12/01 12:46:04;;;;;;;0.75;0.75;;;12.10;99.90;;;;;;6251364;22;20702;-56
2021/12/01 12:48:40;;;;;;;1.00;0.80;;;12.10;99.90;;;;;;6250830;23;20151;-54
2021/12/01 12:51:29;;;;;;;0.95;0.85;;;12.30;99.90;;;;;;6251779;22;20177;-54
2021/12/01 12:54:04;;;;;;;1.10;0.98;;;12.10;99.90;;;;;;6251695;22;20174;-52
2021/12/01 12:56:34;;;;;;;1.10;1.00;;;12.10;99.90;;;;;;6251413;22;20204;-54
2021/12/01 12:59:21;;;;;;;1.10;1.00;;;11.60;99.90;;;;;;6250307;23;20159;-52
2021/12/01 13:01:49;;;;;;;1.00;0.90;;;11.30;99.90;;;;;;6252109;22;20151;-52
2021/12/01 13:04:47;;;;;;;1.10;1.00;;;11.40;99.90;;;;;;6251588;23;20169;-52